sensor_id;sensor_type;location;lat;lon;timestamp;pressure;altitude;pressure_sealevel;temperature;humidity
9717;BME280;4897;43.570;27.832;2022-08-21T00:00:43;98418.94;;;22.31;100.00
9717;BME280;4897;43.570;27.832;2022-08-21T00:03:12;98403.31;;;22.20;100.00
9717;BME280;4897;43.570;27.832;2022-08-21T00:05:43;98351.47;;;21.84;100.00
9717;BME280;4897;43.570;27.832;2022-08-21T00:08:10;98418.78;;;22.26;100.00
9717;BME280;4897;43.570;27.832;2022-08-21T00:10:40;98421.16;;;22.16;100.00
9717;BME280;4897;43.570;27.832;2022-08-21T00:13:07;98419.88;;;22.18;100.00
9717;BME280;4897;43.570;27.832;2022-08-21T00:15:39;98410.94;;;22.11;100.00
9717;BME280;4897;43.570;27.832;2022-08-21T00:18:07;98405.94;;;22.08;100.00
9717;BME280;4897;43.570;27.832;2022-08-21T00:20:35;98403.69;;;21.99;100.00
9717;BME280;4897;43.570;27.832;2022-08-21T00:23:04;98411.00;;;22.05;100.00
9717;BME280;4897;43.570;27.832;2022-08-21T00:25:32;98374.09;;;21.78;100.00
9717;BME280;4897;43.570;27.832;2022-08-21T00:28:00;98389.53;;;21.90;100.00
9717;BME280;4897;43.570;27.832;2022-08-21T00:30:28;98414.66;;;21.92;100.00
9717;BME280;4897;43.570;27.832;2022-08-21T00:32:56;98416.66;;;22.03;100.00
9717;BME280;4897;43.570;27.832;2022-08-21T00:35:26;98400.63;;;21.89;100.00
9717;BME280;4897;43.570;27.832;2022-08-21T00:37:53;98410.22;;;21.98;100.00
9717;BME280;4897;43.570;27.832;2022-08-21T00:40:27;98389.03;;;21.69;100.00
9717;BME280;4897;43.570;27.832;2022-08-21T00:43:06;98398.53;;;21.91;100.00
9717;BME280;4897;43.570;27.832;2022-08-21T00:45:34;98405.97;;;22.02;100.00
9717;BME280;4897;43.570;27.832;2022-08-21T00:48:01;98421.81;;;22.11;100.00
9717;BME280;4897;43.570;27.832;2022-08-21T00:50:31;98343.03;;;21.61;100.00
9717;BME280;4897;43.570;27.832;2022-08-21T00:53:00;98402.09;;;22.16;100.00
9717;BME280;4897;43.570;27.832;2022-08-21T00:55:29;98400.81;;;22.18;100.00
9717;BME280;4897;43.570;27.832;2022-08-21T00:57:59;98410.13;;;22.11;100.00
9717;BME280;4897;43.570;27.832;2022-08-21T01:00:32;98417.22;;;22.37;100.00
9717;BME280;4897;43.570;27.832;2022-08-21T01:03:02;98419.44;;;22.46;100.00
9717;BME280;4897;43.570;27.832;2022-08-21T01:05:32;98416.25;;;22.49;100.00
9717;BME280;4897;43.570;27.832;2022-08-21T01:07:59;98417.00;;;22.38;100.00
9717;BME280;4897;43.570;27.832;2022-08-21T01:10:26;98407.78;;;22.39;100.00
9717;BME280;4897;43.570;27.832;2022-08-21T01:12:55;98346.31;;;22.00;100.00
9717;BME280;4897;43.570;27.832;2022-08-21T01:15:30;98421.88;;;22.54;100.00
9717;BME280;4897;43.570;27.832;2022-08-21T01:17:59;98418.78;;;22.75;100.00
9717;BME280;4897;43.570;27.832;2022-08-21T01:20:26;98406.97;;;22.81;100.00
9717;BME280;4897;43.570;27.832;2022-08-21T01:22:54;98390.69;;;22.75;100.00
9717;BME280;4897;43.570;27.832;2022-08-21T01:25:22;98402.19;;;22.95;100.00
9717;BME280;4897;43.570;27.832;2022-08-21T01:27:49;98395.69;;;22.96;100.00
9717;BME280;4897;43.570;27.832;2022-08-21T01:30:21;98410.69;;;23.05;100.00
9717;BME280;4897;43.570;27.832;2022-08-21T01:32:48;98243.25;;;22.04;100.00
9717;BME280;4897;43.570;27.832;2022-08-21T01:35:18;98342.59;;;22.62;100.00
9717;BME280;4897;43.570;27.832;2022-08-21T01:37:46;98369.84;;;22.62;100.00
9717;BME280;4897;43.570;27.832;2022-08-21T01:40:16;98390.47;;;22.94;100.00
9717;BME280;4897;43.570;27.832;2022-08-21T01:42:43;98379.63;;;22.88;100.00
9717;BME280;4897;43.570;27.832;2022-08-21T01:45:14;98385.47;;;22.91;100.00
9717;BME280;4897;43.570;27.832;2022-08-21T01:47:41;98406.06;;;22.87;100.00
9717;BME280;4897;43.570;27.832;2022-08-21T01:50:12;98388.31;;;22.60;100.00
9717;BME280;4897;43.570;27.832;2022-08-21T01:52:39;98400.88;;;22.61;100.00
9717;BME280;4897;43.570;27.832;2022-08-21T01:55:09;98362.84;;;22.48;100.00
9717;BME280;4897;43.570;27.832;2022-08-21T01:57:38;98385.19;;;22.57;100.00
9717;BME280;4897;43.570;27.832;2022-08-21T02:00:07;98398.56;;;22.40;100.00
9717;BME280;4897;43.570;27.832;2022-08-21T02:02:35;98371.63;;;22.01;100.00
9717;BME280;4897;43.570;27.832;2022-08-21T02:05:03;98394.94;;;22.21;100.00
9717;BME280;4897;43.570;27.832;2022-08-21T02:07:36;98387.81;;;22.20;100.00
9717;BME280;4897;43.570;27.832;2022-08-21T02:10:05;98399.09;;;22.24;100.00
9717;BME280;4897;43.570;27.832;2022-08-21T02:12:32;98370.97;;;22.05;100.00
9717;BME280;4897;43.570;27.832;2022-08-21T02:15:01;98369.84;;;22.19;100.00
9717;BME280;4897;43.570;27.832;2022-08-21T02:17:37;98336.97;;;22.14;100.00
9717;BME280;4897;43.570;27.832;2022-08-21T02:20:05;98341.69;;;22.25;100.00
9717;BME280;4897;43.570;27.832;2022-08-21T02:22:32;98382.34;;;22.45;100.00
9717;BME280;4897;43.570;27.832;2022-08-21T02:25:01;98401.22;;;22.71;100.00
9717;BME280;4897;43.570;27.832;2022-08-21T02:27:28;98388.09;;;22.62;100.00
9717;BME280;4897;43.570;27.832;2022-08-21T02:29:56;98383.72;;;22.61;100.00
9717;BME280;4897;43.570;27.832;2022-08-21T02:32:25;98381.63;;;22.56;100.00
9717;BME280;4897;43.570;27.832;2022-08-21T02:34:52;98403.00;;;22.59;100.00
9717;BME280;4897;43.570;27.832;2022-08-21T02:37:19;98339.97;;;22.06;100.00
9717;BME280;4897;43.570;27.832;2022-08-21T02:39:46;98368.72;;;22.45;100.00
9717;BME280;4897;43.570;27.832;2022-08-21T02:42:13;98404.66;;;22.60;100.00
9717;BME280;4897;43.570;27.832;2022-08-21T02:44:40;98372.22;;;22.34;100.00
9717;BME280;4897;43.570;27.832;2022-08-21T02:47:07;98344.69;;;22.17;100.00
9717;BME280;4897;43.570;27.832;2022-08-21T02:49:35;98398.69;;;22.45;100.00
9717;BME280;4897;43.570;27.832;2022-08-21T02:52:02;98386.97;;;22.45;100.00
9717;BME280;4897;43.570;27.832;2022-08-21T02:54:31;98391.75;;;22.49;100.00
9717;BME280;4897;43.570;27.832;2022-08-21T02:56:58;98385.38;;;22.37;100.00
9717;BME280;4897;43.570;27.832;2022-08-21T02:59:28;98384.31;;;22.38;100.00
9717;BME280;4897;43.570;27.832;2022-08-21T03:01:58;98405.81;;;22.46;100.00
9717;BME280;4897;43.570;27.832;2022-08-21T03:04:25;98346.97;;;21.96;100.00
9717;BME280;4897;43.570;27.832;2022-08-21T03:06:54;98362.44;;;22.02;100.00
9717;BME280;4897;43.570;27.832;2022-08-21T03:09:20;98396.88;;;22.14;100.00
9717;BME280;4897;43.570;27.832;2022-08-21T03:11:47;98349.84;;;21.70;100.00
9717;BME280;4897;43.570;27.832;2022-08-21T03:14:14;98400.97;;;21.99;100.00
9717;BME280;4897;43.570;27.832;2022-08-21T03:16:41;98414.53;;;22.05;100.00
9717;BME280;4897;43.570;27.832;2022-08-21T03:19:12;98409.97;;;21.99;100.00
9717;BME280;4897;43.570;27.832;2022-08-21T03:21:40;98425.47;;;21.99;100.00
9717;BME280;4897;43.570;27.832;2022-08-21T03:24:08;98420.50;;;21.96;100.00
9717;BME280;4897;43.570;27.832;2022-08-21T03:26:40;98420.22;;;22.04;100.00
9717;BME280;4897;43.570;27.832;2022-08-21T03:29:07;98396.88;;;21.90;100.00
9717;BME280;4897;43.570;27.832;2022-08-21T03:31:34;98396.13;;;21.70;100.00
9717;BME280;4897;43.570;27.832;2022-08-21T03:34:01;98422.75;;;21.99;100.00
9717;BME280;4897;43.570;27.832;2022-08-21T03:36:28;98407.38;;;21.80;100.00
9717;BME280;4897;43.570;27.832;2022-08-21T03:38:55;98355.22;;;21.52;100.00
9717;BME280;4897;43.570;27.832;2022-08-21T03:41:23;98430.31;;;21.97;100.00
9717;BME280;4897;43.570;27.832;2022-08-21T03:43:50;98434.47;;;21.99;100.00
9717;BME280;4897;43.570;27.832;2022-08-21T03:46:17;98418.16;;;21.99;100.00
9717;BME280;4897;43.570;27.832;2022-08-21T03:48:44;98360.59;;;21.65;100.00
9717;BME280;4897;43.570;27.832;2022-08-21T03:51:11;98390.88;;;21.75;100.00
9717;BME280;4897;43.570;27.832;2022-08-21T03:53:38;98441.72;;;22.12;100.00
9717;BME280;4897;43.570;27.832;2022-08-21T03:56:06;98426.44;;;22.11;100.00
9717;BME280;4897;43.570;27.832;2022-08-21T03:58:34;98429.19;;;22.36;100.00
9717;BME280;4897;43.570;27.832;2022-08-21T04:01:04;98411.09;;;22.16;100.00
9717;BME280;4897;43.570;27.832;2022-08-21T04:03:34;98366.94;;;21.90;100.00
9717;BME280;4897;43.570;27.832;2022-08-21T04:06:02;98428.00;;;22.25;100.00
9717;BME280;4897;43.570;27.832;2022-08-21T04:08:29;98431.06;;;22.35;100.00
9717;BME280;4897;43.570;27.832;2022-08-21T04:10:58;98258.84;;;21.41;100.00
9717;BME280;4897;43.570;27.832;2022-08-21T04:13:25;98431.56;;;22.50;100.00
9717;BME280;4897;43.570;27.832;2022-08-21T04:15:54;98401.53;;;22.32;100.00
9717;BME280;4897;43.570;27.832;2022-08-21T04:18:21;98396.09;;;22.32;100.00
9717;BME280;4897;43.570;27.832;2022-08-21T04:20:50;98429.59;;;22.57;100.00
9717;BME280;4897;43.570;27.832;2022-08-21T04:23:19;98436.09;;;22.63;100.00
9717;BME280;4897;43.570;27.832;2022-08-21T04:25:46;98425.66;;;22.53;100.00
9717;BME280;4897;43.570;27.832;2022-08-21T04:28:13;98413.81;;;22.41;100.00
9717;BME280;4897;43.570;27.832;2022-08-21T04:30:40;98428.34;;;22.60;100.00
9717;BME280;4897;43.570;27.832;2022-08-21T04:33:12;98376.22;;;22.32;100.00
9717;BME280;4897;43.570;27.832;2022-08-21T04:35:39;98436.78;;;22.76;100.00
9717;BME280;4897;43.570;27.832;2022-08-21T04:38:07;98352.84;;;22.42;100.00
9717;BME280;4897;43.570;27.832;2022-08-21T04:40:34;98376.34;;;22.61;100.00
9717;BME280;4897;43.570;27.832;2022-08-21T04:43:06;98413.03;;;23.01;100.00
9717;BME280;4897;43.570;27.832;2022-08-21T04:45:36;98412.94;;;23.08;100.00
9717;BME280;4897;43.570;27.832;2022-08-21T04:48:09;98421.06;;;23.33;100.00
9717;BME280;4897;43.570;27.832;2022-08-21T04:50:40;98398.69;;;23.24;100.00
9717;BME280;4897;43.570;27.832;2022-08-21T04:53:11;98412.88;;;23.51;100.00
9717;BME280;4897;43.570;27.832;2022-08-21T04:55:39;98386.47;;;23.45;100.00
9717;BME280;4897;43.570;27.832;2022-08-21T04:58:09;98425.09;;;23.78;100.00
9717;BME280;4897;43.570;27.832;2022-08-21T05:00:38;98282.78;;;22.85;100.00
9717;BME280;4897;43.570;27.832;2022-08-21T05:03:08;98427.53;;;23.68;100.00
9717;BME280;4897;43.570;27.832;2022-08-21T05:05:37;98333.75;;;23.33;100.00
9717;BME280;4897;43.570;27.832;2022-08-21T05:08:06;98417.78;;;24.31;100.00
9717;BME280;4897;43.570;27.832;2022-08-21T05:10:34;98392.84;;;24.51;100.00
9717;BME280;4897;43.570;27.832;2022-08-21T05:13:01;98383.56;;;24.64;100.00
9717;BME280;4897;43.570;27.832;2022-08-21T05:15:31;98378.19;;;24.69;100.00
9717;BME280;4897;43.570;27.832;2022-08-21T05:18:01;98369.41;;;24.90;100.00
9717;BME280;4897;43.570;27.832;2022-08-21T05:20:32;98410.22;;;25.31;100.00
9717;BME280;4897;43.570;27.832;2022-08-21T05:23:09;98360.13;;;25.42;100.00
9717;BME280;4897;43.570;27.832;2022-08-21T05:25:40;98376.31;;;25.72;100.00
9717;BME280;4897;43.570;27.832;2022-08-21T05:28:07;98358.53;;;25.74;100.00
9717;BME280;4897;43.570;27.832;2022-08-21T05:30:35;98382.91;;;26.04;100.00
9717;BME280;4897;43.570;27.832;2022-08-21T05:33:05;98358.13;;;26.10;100.00
9717;BME280;4897;43.570;27.832;2022-08-21T05:35:34;98359.22;;;26.09;100.00
9717;BME280;4897;43.570;27.832;2022-08-21T05:38:02;98304.38;;;25.76;100.00
9717;BME280;4897;43.570;27.832;2022-08-21T05:40:31;98383.03;;;26.42;100.00
9717;BME280;4897;43.570;27.832;2022-08-21T05:42:58;98365.69;;;26.37;100.00
9717;BME280;4897;43.570;27.832;2022-08-21T05:45:27;98373.34;;;26.35;100.00
9717;BME280;4897;43.570;27.832;2022-08-21T05:47:55;98397.41;;;26.33;100.00
9717;BME280;4897;43.570;27.832;2022-08-21T05:50:24;98317.66;;;25.84;100.00
9717;BME280;4897;43.570;27.832;2022-08-21T05:52:53;98371.84;;;26.27;100.00
9717;BME280;4897;43.570;27.832;2022-08-21T05:55:20;98370.50;;;26.30;100.00
9717;BME280;4897;43.570;27.832;2022-08-21T05:57:51;98373.34;;;26.35;100.00
9717;BME280;4897;43.570;27.832;2022-08-21T06:00:18;98360.28;;;26.08;100.00
9717;BME280;4897;43.570;27.832;2022-08-21T06:02:51;98353.84;;;25.86;100.00
9717;BME280;4897;43.570;27.832;2022-08-21T06:05:19;98362.50;;;25.95;100.00
9717;BME280;4897;43.570;27.832;2022-08-21T06:07:46;98387.81;;;26.02;100.00
9717;BME280;4897;43.570;27.832;2022-08-21T06:10:14;98385.72;;;25.76;100.00
9717;BME280;4897;43.570;27.832;2022-08-21T06:12:41;98396.66;;;25.76;100.00
9717;BME280;4897;43.570;27.832;2022-08-21T06:15:10;98324.63;;;25.47;100.00
9717;BME280;4897;43.570;27.832;2022-08-21T06:17:39;98351.09;;;25.70;100.00
9717;BME280;4897;43.570;27.832;2022-08-21T06:20:07;98377.63;;;26.14;100.00
9717;BME280;4897;43.570;27.832;2022-08-21T06:22:38;98386.84;;;26.25;100.00
9717;BME280;4897;43.570;27.832;2022-08-21T06:25:05;98327.16;;;26.10;100.00
9717;BME280;4897;43.570;27.832;2022-08-21T06:27:38;98353.03;;;26.52;100.00
9717;BME280;4897;43.570;27.832;2022-08-21T06:30:06;98372.47;;;26.84;100.00
9717;BME280;4897;43.570;27.832;2022-08-21T06:32:35;98188.16;;;25.89;100.00
9717;BME280;4897;43.570;27.832;2022-08-21T06:35:03;98338.53;;;26.90;100.00
9717;BME280;4897;43.570;27.832;2022-08-21T06:37:33;98346.50;;;26.91;100.00
9717;BME280;4897;43.570;27.832;2022-08-21T06:40:00;98359.50;;;27.23;100.00
9717;BME280;4897;43.570;27.832;2022-08-21T06:42:27;98306.25;;;26.97;100.00
9717;BME280;4897;43.570;27.832;2022-08-21T06:44:56;98314.06;;;27.10;100.00
9717;BME280;4897;43.570;27.832;2022-08-21T06:47:24;98350.47;;;27.44;100.00
9717;BME280;4897;43.570;27.832;2022-08-21T06:49:54;98351.97;;;27.56;100.00
9717;BME280;4897;43.570;27.832;2022-08-21T06:52:21;98324.31;;;27.63;100.00
9717;BME280;4897;43.570;27.832;2022-08-21T06:54:48;98324.69;;;27.72;100.00
9717;BME280;4897;43.570;27.832;2022-08-21T06:57:19;98332.78;;;27.88;100.00
9717;BME280;4897;43.570;27.832;2022-08-21T06:59:47;98290.75;;;27.88;100.00
9717;BME280;4897;43.570;27.832;2022-08-21T07:02:17;98341.94;;;28.25;100.00
9717;BME280;4897;43.570;27.832;2022-08-21T07:04:44;98347.28;;;28.42;100.00
9717;BME280;4897;43.570;27.832;2022-08-21T07:07:14;98342.50;;;28.59;100.00
9717;BME280;4897;43.570;27.832;2022-08-21T07:09:41;98337.63;;;28.39;100.00
9717;BME280;4897;43.570;27.832;2022-08-21T07:12:09;98341.69;;;28.64;100.00
9717;BME280;4897;43.570;27.832;2022-08-21T07:14:36;98322.72;;;28.67;100.00
9717;BME280;4897;43.570;27.832;2022-08-21T07:17:03;98345.22;;;29.01;100.00
9717;BME280;4897;43.570;27.832;2022-08-21T07:19:32;98359.56;;;29.13;100.00
9717;BME280;4897;43.570;27.832;2022-08-21T07:22:01;98340.13;;;29.25;100.00
9717;BME280;4897;43.570;27.832;2022-08-21T07:24:32;98339.06;;;29.41;100.00
9717;BME280;4897;43.570;27.832;2022-08-21T07:26:59;98337.44;;;29.50;100.00
9717;BME280;4897;43.570;27.832;2022-08-21T07:29:26;98327.50;;;29.44;100.00
9717;BME280;4897;43.570;27.832;2022-08-21T07:31:56;98336.94;;;29.68;100.00
9717;BME280;4897;43.570;27.832;2022-08-21T07:34:23;98318.25;;;29.85;100.00
9717;BME280;4897;43.570;27.832;2022-08-21T07:36:50;98338.66;;;30.24;100.00
9717;BME280;4897;43.570;27.832;2022-08-21T07:39:17;98316.84;;;29.87;100.00
9717;BME280;4897;43.570;27.832;2022-08-21T07:41:46;98336.47;;;30.26;100.00
9717;BME280;4897;43.570;27.832;2022-08-21T07:44:13;98326.25;;;30.42;100.00
9717;BME280;4897;43.570;27.832;2022-08-21T07:46:40;98343.38;;;30.34;100.00
9717;BME280;4897;43.570;27.832;2022-08-21T07:49:07;98350.81;;;30.48;100.00
9717;BME280;4897;43.570;27.832;2022-08-21T07:51:36;98306.09;;;30.61;100.00
9717;BME280;4897;43.570;27.832;2022-08-21T07:54:03;98326.13;;;31.02;100.00
9717;BME280;4897;43.570;27.832;2022-08-21T07:56:30;98318.63;;;31.18;100.00
9717;BME280;4897;43.570;27.832;2022-08-21T07:58:59;98315.69;;;31.58;100.00
9717;BME280;4897;43.570;27.832;2022-08-21T08:01:28;98316.44;;;32.12;100.00
9717;BME280;4897;43.570;27.832;2022-08-21T08:03:55;98316.44;;;32.41;100.00
9717;BME280;4897;43.570;27.832;2022-08-21T08:06:23;98299.63;;;32.04;100.00
9717;BME280;4897;43.570;27.832;2022-08-21T08:08:51;98312.63;;;32.03;100.00
9717;BME280;4897;43.570;27.832;2022-08-21T08:11:20;98307.47;;;31.87;100.00
9717;BME280;4897;43.570;27.832;2022-08-21T08:13:50;98320.00;;;31.74;100.00
9717;BME280;4897;43.570;27.832;2022-08-21T08:16:19;98291.84;;;31.13;100.00
9717;BME280;4897;43.570;27.832;2022-08-21T08:18:46;98319.06;;;31.50;100.00
9717;BME280;4897;43.570;27.832;2022-08-21T08:21:15;98300.50;;;31.56;100.00
9717;BME280;4897;43.570;27.832;2022-08-21T08:23:45;98289.00;;;32.50;100.00
9717;BME280;4897;43.570;27.832;2022-08-21T08:26:13;98309.16;;;34.06;84.60
9717;BME280;4897;43.570;27.832;2022-08-21T08:28:41;98283.66;;;33.29;93.38
9717;BME280;4897;43.570;27.832;2022-08-21T08:31:08;98237.56;;;35.57;69.54
9717;BME280;4897;43.570;27.832;2022-08-21T08:33:37;98294.47;;;37.15;55.83
9717;BME280;4897;43.570;27.832;2022-08-21T08:36:13;98285.47;;;36.34;57.11
9717;BME280;4897;43.570;27.832;2022-08-21T08:38:40;98301.88;;;35.42;62.08
9717;BME280;4897;43.570;27.832;2022-08-21T08:41:10;98300.53;;;34.39;73.03
9717;BME280;4897;43.570;27.832;2022-08-21T08:43:41;98274.06;;;35.56;64.28
9717;BME280;4897;43.570;27.832;2022-08-21T08:46:13;98283.13;;;38.10;50.42
9717;BME280;4897;43.570;27.832;2022-08-21T08:48:47;98296.59;;;38.89;46.80
9717;BME280;4897;43.570;27.832;2022-08-21T08:51:23;98299.88;;;38.27;46.91
9717;BME280;4897;43.570;27.832;2022-08-21T08:54:00;98267.97;;;36.34;56.35
9717;BME280;4897;43.570;27.832;2022-08-21T08:56:33;98272.59;;;35.09;64.29
9717;BME280;4897;43.570;27.832;2022-08-21T08:59:18;98294.38;;;34.42;72.85
9717;BME280;4897;43.570;27.832;2022-08-21T09:01:48;98288.50;;;33.79;80.20
9717;BME280;4897;43.570;27.832;2022-08-21T09:04:25;98281.81;;;33.20;89.45
9717;BME280;4897;43.570;27.832;2022-08-21T09:07:01;98271.50;;;35.32;68.63
9717;BME280;4897;43.570;27.832;2022-08-21T09:09:43;98276.25;;;36.47;57.35
9717;BME280;4897;43.570;27.832;2022-08-21T09:12:20;98256.44;;;37.27;53.06
9717;BME280;4897;43.570;27.832;2022-08-21T09:15:03;98261.75;;;37.46;50.64
9717;BME280;4897;43.570;27.832;2022-08-21T09:17:41;98266.25;;;39.08;44.16
9717;BME280;4897;43.570;27.832;2022-08-21T09:20:21;98233.56;;;37.00;47.97
9717;BME280;4897;43.570;27.832;2022-08-21T09:23:00;98263.13;;;36.17;53.79
9717;BME280;4897;43.570;27.832;2022-08-21T09:25:36;98257.25;;;38.56;45.57
9717;BME280;4897;43.570;27.832;2022-08-21T09:28:09;98218.09;;;40.59;38.29
9717;BME280;4897;43.570;27.832;2022-08-21T09:30:39;98239.09;;;42.13;35.56
9717;BME280;4897;43.570;27.832;2022-08-21T09:33:07;98260.25;;;42.66;33.96
9717;BME280;4897;43.570;27.832;2022-08-21T09:35:48;98259.94;;;39.99;37.31
9717;BME280;4897;43.570;27.832;2022-08-21T09:38:25;98253.44;;;40.96;37.04
9717;BME280;4897;43.570;27.832;2022-08-21T09:40:57;98232.38;;;42.77;33.73
9717;BME280;4897;43.570;27.832;2022-08-21T09:43:27;98245.03;;;42.24;34.11
9717;BME280;4897;43.570;27.832;2022-08-21T09:46:07;98226.97;;;42.25;33.09
9717;BME280;4897;43.570;27.832;2022-08-21T09:48:44;98236.69;;;43.87;30.80
9717;BME280;4897;43.570;27.832;2022-08-21T09:51:18;98230.50;;;43.82;30.96
9717;BME280;4897;43.570;27.832;2022-08-21T09:53:48;98222.88;;;43.82;31.24
9717;BME280;4897;43.570;27.832;2022-08-21T09:56:33;98232.72;;;43.38;31.44
9717;BME280;4897;43.570;27.832;2022-08-21T09:59:29;98231.31;;;41.19;33.78
9717;BME280;4897;43.570;27.832;2022-08-21T10:01:59;98230.41;;;42.77;31.86
9717;BME280;4897;43.570;27.832;2022-08-21T10:04:29;98224.53;;;44.02;29.79
9717;BME280;4897;43.570;27.832;2022-08-21T10:07:08;98217.00;;;44.71;28.23
9717;BME280;4897;43.570;27.832;2022-08-21T10:09:38;98219.47;;;45.21;26.82
9717;BME280;4897;43.570;27.832;2022-08-21T10:12:15;98204.34;;;44.84;26.97
9717;BME280;4897;43.570;27.832;2022-08-21T10:14:57;98206.38;;;45.36;26.49
9717;BME280;4897;43.570;27.832;2022-08-21T10:17:32;98216.03;;;45.61;26.38
9717;BME280;4897;43.570;27.832;2022-08-21T10:20:07;98213.59;;;45.07;26.44
9717;BME280;4897;43.570;27.832;2022-08-21T10:22:44;98167.91;;;45.83;26.18
9717;BME280;4897;43.570;27.832;2022-08-21T10:25:18;98195.97;;;46.32;25.22
9717;BME280;4897;43.570;27.832;2022-08-21T10:27:55;98199.31;;;46.45;25.56
9717;BME280;4897;43.570;27.832;2022-08-21T10:30:31;98180.06;;;45.87;25.53
9717;BME280;4897;43.570;27.832;2022-08-21T10:33:13;98147.22;;;44.68;26.84
9717;BME280;4897;43.570;27.832;2022-08-21T10:35:51;98181.97;;;45.50;26.37
9717;BME280;4897;43.570;27.832;2022-08-21T10:39:01;98193.25;;;46.87;25.54
9717;BME280;4897;43.570;27.832;2022-08-21T10:41:59;98200.88;;;47.30;25.60
9717;BME280;4897;43.570;27.832;2022-08-21T10:44:32;98190.47;;;46.13;26.88
9717;BME280;4897;43.570;27.832;2022-08-21T10:47:06;98131.59;;;46.62;26.52
9717;BME280;4897;43.570;27.832;2022-08-21T10:49:43;98154.66;;;47.15;25.97
9717;BME280;4897;43.570;27.832;2022-08-21T10:52:28;98186.91;;;45.27;30.00
9717;BME280;4897;43.570;27.832;2022-08-21T10:55:08;98174.09;;;44.16;31.41
9717;BME280;4897;43.570;27.832;2022-08-21T10:57:41;98147.31;;;44.49;30.72
9717;BME280;4897;43.570;27.832;2022-08-21T11:00:12;98146.84;;;45.18;28.58
9717;BME280;4897;43.570;27.832;2022-08-21T11:02:44;98174.78;;;44.10;29.56
9717;BME280;4897;43.570;27.832;2022-08-21T11:05:18;98169.47;;;43.51;30.04
9717;BME280;4897;43.570;27.832;2022-08-21T11:07:51;98143.16;;;44.20;29.51
9717;BME280;4897;43.570;27.832;2022-08-21T11:10:24;98121.06;;;44.93;28.61
9717;BME280;4897;43.570;27.832;2022-08-21T11:12:58;98180.13;;;42.60;33.06
9717;BME280;4897;43.570;27.832;2022-08-21T11:15:39;98158.16;;;42.81;32.94
9717;BME280;4897;43.570;27.832;2022-08-21T11:18:31;98173.88;;;42.82;32.92
9717;BME280;4897;43.570;27.832;2022-08-21T11:21:04;98154.25;;;41.80;34.87
9717;BME280;4897;43.570;27.832;2022-08-21T11:23:39;98161.63;;;41.45;35.20
9717;BME280;4897;43.570;27.832;2022-08-21T11:26:15;98165.53;;;41.28;35.93
9717;BME280;4897;43.570;27.832;2022-08-21T11:28:46;98161.50;;;41.81;35.23
9717;BME280;4897;43.570;27.832;2022-08-21T11:31:27;98163.81;;;42.97;33.00
9717;BME280;4897;43.570;27.832;2022-08-21T11:34:12;98159.28;;;42.61;33.49
9717;BME280;4897;43.570;27.832;2022-08-21T11:36:51;98140.16;;;42.51;34.71
9717;BME280;4897;43.570;27.832;2022-08-21T11:39:26;98148.94;;;40.75;38.53
9717;BME280;4897;43.570;27.832;2022-08-21T11:42:06;98166.16;;;38.93;43.89
9717;BME280;4897;43.570;27.832;2022-08-21T11:44:49;98164.41;;;37.96;48.05
9717;BME280;4897;43.570;27.832;2022-08-21T11:47:25;98160.47;;;36.63;64.92
9717;BME280;4897;43.570;27.832;2022-08-21T11:50:09;98095.88;;;35.52;81.40
9717;BME280;4897;43.570;27.832;2022-08-21T11:52:45;98092.34;;;34.89;94.20
9717;BME280;4897;43.570;27.832;2022-08-21T11:55:22;98158.69;;;34.54;100.00
9717;BME280;4897;43.570;27.832;2022-08-21T11:57:57;98165.38;;;33.75;100.00
9717;BME280;4897;43.570;27.832;2022-08-21T12:00:29;98164.63;;;32.29;100.00
9717;BME280;4897;43.570;27.832;2022-08-21T12:03:07;98166.31;;;31.34;100.00
9717;BME280;4897;43.570;27.832;2022-08-21T12:05:39;98101.53;;;31.50;100.00
9717;BME280;4897;43.570;27.832;2022-08-21T12:08:11;98110.19;;;32.49;100.00
9717;BME280;4897;43.570;27.832;2022-08-21T12:10:41;98149.00;;;34.52;100.00
9717;BME280;4897;43.570;27.832;2022-08-21T12:13:21;98146.19;;;36.17;99.16
9717;BME280;4897;43.570;27.832;2022-08-21T12:15:49;98070.56;;;35.18;93.95
9717;BME280;4897;43.570;27.832;2022-08-21T12:18:22;98143.91;;;34.95;100.00
9717;BME280;4897;43.570;27.832;2022-08-21T12:21:03;98130.25;;;34.85;99.79
9717;BME280;4897;43.570;27.832;2022-08-21T12:23:32;98085.66;;;34.54;99.07
9717;BME280;4897;43.570;27.832;2022-08-21T12:26:19;98125.06;;;33.83;100.00
9717;BME280;4897;43.570;27.832;2022-08-21T12:28:50;98087.53;;;32.84;100.00
9717;BME280;4897;43.570;27.832;2022-08-21T12:31:19;98153.38;;;32.45;100.00
9717;BME280;4897;43.570;27.832;2022-08-21T12:33:52;98102.09;;;31.81;100.00
9717;BME280;4897;43.570;27.832;2022-08-21T12:36:22;98088.03;;;31.49;100.00
9717;BME280;4897;43.570;27.832;2022-08-21T12:38:54;98131.69;;;31.47;100.00
9717;BME280;4897;43.570;27.832;2022-08-21T12:41:27;98134.41;;;31.18;100.00
9717;BME280;4897;43.570;27.832;2022-08-21T12:44:00;98149.09;;;31.09;100.00
9717;BME280;4897;43.570;27.832;2022-08-21T12:46:34;98154.44;;;30.90;100.00
9717;BME280;4897;43.570;27.832;2022-08-21T12:49:08;98145.91;;;30.82;100.00
9717;BME280;4897;43.570;27.832;2022-08-21T12:51:52;98095.81;;;30.54;100.00
9717;BME280;4897;43.570;27.832;2022-08-21T12:54:26;98089.81;;;30.47;100.00
9717;BME280;4897;43.570;27.832;2022-08-21T12:57:05;98144.81;;;30.77;100.00
9717;BME280;4897;43.570;27.832;2022-08-21T12:59:37;98100.78;;;30.57;100.00
9717;BME280;4897;43.570;27.832;2022-08-21T13:02:15;98139.88;;;30.74;100.00
9717;BME280;4897;43.570;27.832;2022-08-21T13:04:43;98142.78;;;30.49;100.00
9717;BME280;4897;43.570;27.832;2022-08-21T13:07:13;98105.34;;;30.18;100.00
9717;BME280;4897;43.570;27.832;2022-08-21T13:09:46;98107.50;;;30.31;100.00
9717;BME280;4897;43.570;27.832;2022-08-21T13:12:16;98139.34;;;30.72;100.00
9717;BME280;4897;43.570;27.832;2022-08-21T13:14:46;98141.75;;;30.84;100.00
9717;BME280;4897;43.570;27.832;2022-08-21T13:17:20;98147.00;;;30.86;100.00
9717;BME280;4897;43.570;27.832;2022-08-21T13:19:57;98129.94;;;31.22;100.00
9717;BME280;4897;43.570;27.832;2022-08-21T13:22:26;98137.97;;;32.15;100.00